Airfield :
LOGIN :

Register | Disclaimer

   EN    FR    IT 

 










Legend :    VFR   Marginal VFR   IFR   Intensive IFR   Very Intensive IFR
Visi :
Ceiling :
>= 8 km
>= 3000ft
5 to 8 km
1000 to 3000 ft
1500m to 5 km
500 to 1000 ft
800 to 1500m
200 to 500 ft
< 800m
< 200 ft
Symbols :   Thunderstorms  Fog  Heavy snow  Heavy precipitations  Wind > 20 kt
SIGMETs :     Misc.  Thunderstorms  Icing  Turbulence  Mountain Waves  Volcanic Ashes






- Airport Elevation : 294 ft
- IATA code : NAP


LIRN - Naples Capodichino

CURRENT METAR :
  • 200320Z VRB02KT CAVOK 07/02 Q1011 NOSIG

EXPIRED METARs :
  • 200250Z VRB02KT CAVOK 07/02 Q1011 NOSIG
  • 200220Z VRB02KT CAVOK 07/01 Q1011 NOSIG
  • 200150Z VRB02KT CAVOK 10/01 Q1011 NOSIG
  • 200120Z 33002KT CAVOK 08/02 Q1011 NOSIG
  • 200050Z 33003KT 270V350 CAVOK 08/02 Q1012 NOSIG
  • 200020Z 33002KT CAVOK 09/02 Q1012 NOSIG
  • 192350Z 03003KT CAVOK 09/02 Q1012 NOSIG
  • 192320Z VRB02KT CAVOK 09/02 Q1012 NOSIG
  • 192250Z 01003KT CAVOK 09/02 Q1012 NOSIG
  • 192220Z 03003KT CAVOK 09/02 Q1012 NOSIG

TAF TAF LIRN
Valid from the 20 at 00:00 until the 21 at 00:00 UTC


192300Z 2000/2024 04005KT 9999 FEW040
BECMG 2008/2010 21011KT
PROB40
TEMPO 2013/2015 SHRA BKN014
BECMG 2019/2021 35006KT



MET'MAP, your aeronautical weather chart ! - Copyright ORBIFLY December 2007 - Disclaimer

ORBIFLY MET'MAP TEAM :

Programming & Development : Alexandra Zaïnal
Original concept : Baudouin d'Aumeries
Technical & hardware support : Manuel Goepfert
Assistance : Marc-Olivier Méhu




SOURCES & CREDITS :

   NOAA